< < Back
Terminal Aerodrome Forecast


Current Version              Previous Versions:   1  2  3  4  5  6  7  8  9  

Terminal Aerodrome Forecast

739
FTUS44 KBMX 262025 AAA
TAFBHM
TAF AMD
KBHM 262025Z 2620/2718 29011KT P6SM SCT060
     FM270300 36005KT P6SM SCT250
     FM270600 03005KT P6SM SCT250=



Latest METAR

050
SAUS70 KWBC 270500 RRE
MTRBHM
METAR KBHM 270453Z 02008KT 10SM BKN015 13/10 A2985 RMK AO2 SLP103
T01280100


USA.gov is the U.S. government's official web portal to all federal, state and local government web resources and services.